PWSweather.com
Personal Weather Stations
Station Observations
MENWDWX1
Menstrie, ScotlandGB

MenstrieScotlandGB

Lat: 56.148322, Lon: -3.85483

Elevation: 62

Station Type: Davis Vantage Pro 2

High Low Average
Temperature 52.5°F11.4°C 36.8°F2.7°C 44.9°F7.2°C
Dew Point 44.5°F6.9°C 30.5°F-0.8°C 38.2°F3.4°C
Winds 10.4 mph 16.7 kmh Calm Calm 4.0 mph E6.4 kmh E
Wind Gusts 13.8 mph22.2 kmh -- 6.0 mph9.7 kmh
Humidity 79% 73% 77%
Pressure 29.72 in1006.4 mb 29.51 in999.3 mb -
Precipitation 0.46 in11.7 mm - -
Hour Temp Dew Point Humidity Winds Wind Gusts Pressure Precip Precip Rate Daily Precip Total
12:00 AM 42.1°F5.6°C 35.7°F2.1°C 78% Calm Calm -- 29.51 in999.3 mb - 0.00 in0.0 mm 0.00 in0.0 mm
12:05 AM 42.1°F5.6°C 35.7°F2.1°C 78% Calm Calm -- 29.52 in999.7 mb - 0.00 in0.0 mm 0.00 in0.0 mm
12:10 AM 42.3°F5.7°C 35.9°F2.2°C 78% Calm Calm -- 29.52 in999.7 mb - 0.00 in0.0 mm 0.00 in0.0 mm
12:15 AM 42.4°F5.8°C 36.0°F2.2°C 78% Calm Calm -- 29.53 in1000.0 mb - 0.00 in0.0 mm 0.00 in0.0 mm
12:20 AM 42.4°F5.8°C 36.0°F2.2°C 78% Calm Calm -- 29.53 in1000.0 mb - 0.00 in0.0 mm 0.00 in0.0 mm
12:25 AM 42.3°F5.7°C 35.9°F2.2°C 78% Calm Calm -- 29.53 in1000.0 mb - 0.00 in0.0 mm 0.00 in0.0 mm
12:30 AM 42.1°F5.6°C 35.7°F2.1°C 78% Calm Calm -- 29.53 in1000.0 mb - 0.00 in0.0 mm 0.00 in0.0 mm
12:35 AM 42.0°F5.6°C 35.6°F2.0°C 78% Calm Calm -- 29.53 in1000.0 mb - 0.00 in0.0 mm 0.00 in0.0 mm
12:40 AM 41.9°F5.5°C 35.5°F1.9°C 78% 2.3 mph NNW3.7 kmh NNW 3.5 mph5.6 kmh 29.54 in1000.3 mb - 0.00 in0.0 mm 0.00 in0.0 mm
12:45 AM 42.0°F5.6°C 35.7°F2.1°C 78% 2.3 mph NNW3.7 kmh NNW 2.3 mph3.7 kmh 29.54 in1000.3 mb - 0.00 in0.0 mm 0.00 in0.0 mm
12:50 AM 42.2°F5.7°C 35.8°F2.1°C 78% Calm Calm -- 29.54 in1000.3 mb - 0.00 in0.0 mm 0.00 in0.0 mm
12:55 AM 42.2°F5.7°C 35.9°F2.2°C 78% Calm Calm -- 29.55 in1000.7 mb - 0.00 in0.0 mm 0.00 in0.0 mm
01:00 AM 42.2°F5.7°C 35.8°F2.1°C 78% Calm Calm -- 29.55 in1000.7 mb - 0.00 in0.0 mm 0.00 in0.0 mm
01:05 AM 42.2°F5.7°C 35.8°F2.1°C 78% 2.3 mph NNW3.7 kmh NNW 3.5 mph5.6 kmh 29.56 in1001.0 mb - 0.00 in0.0 mm 0.00 in0.0 mm
01:10 AM 42.0°F5.6°C 35.6°F2.0°C 78% 2.3 mph NE3.7 kmh NE 3.5 mph5.6 kmh 29.56 in1001.0 mb - 0.00 in0.0 mm 0.00 in0.0 mm
01:15 AM 42.0°F5.6°C 35.6°F2.0°C 78% 2.3 mph NE3.7 kmh NE 3.5 mph5.6 kmh 29.56 in1001.0 mb - 0.00 in0.0 mm 0.00 in0.0 mm
01:20 AM 42.0°F5.6°C 35.6°F2.0°C 78% 1.2 mph NE1.9 kmh NE 3.5 mph5.6 kmh 29.56 in1001.0 mb - 0.00 in0.0 mm 0.00 in0.0 mm
01:25 AM 42.0°F5.6°C 35.6°F2.0°C 78% 2.3 mph NE3.7 kmh NE 3.5 mph5.6 kmh 29.56 in1001.0 mb - 0.00 in0.0 mm 0.00 in0.0 mm
01:30 AM 42.2°F5.7°C 35.8°F2.1°C 78% 1.2 mph NE1.9 kmh NE 3.5 mph5.6 kmh 29.57 in1001.4 mb - 0.00 in0.0 mm 0.00 in0.0 mm
01:35 AM 42.2°F5.7°C 35.8°F2.1°C 78% 2.3 mph NE3.7 kmh NE 3.5 mph5.6 kmh 29.57 in1001.4 mb - 0.00 in0.0 mm 0.00 in0.0 mm
01:40 AM 42.2°F5.7°C 35.8°F2.1°C 78% 2.3 mph NE3.7 kmh NE 3.5 mph5.6 kmh 29.57 in1001.4 mb - 0.00 in0.0 mm 0.00 in0.0 mm
01:45 AM 42.1°F5.6°C 35.7°F2.1°C 78% 1.2 mph NE1.9 kmh NE 3.5 mph5.6 kmh 29.57 in1001.4 mb - 0.00 in0.0 mm 0.00 in0.0 mm
01:50 AM 41.9°F5.5°C 35.2°F1.8°C 77% 2.3 mph NE3.7 kmh NE 3.5 mph5.6 kmh 29.58 in1001.7 mb - 0.00 in0.0 mm 0.00 in0.0 mm
01:55 AM 41.9°F5.5°C 35.2°F1.8°C 77% 1.2 mph NE1.9 kmh NE 1.2 mph1.9 kmh 29.58 in1001.7 mb - 0.00 in0.0 mm 0.00 in0.0 mm
02:00 AM 41.8°F5.4°C 35.1°F1.7°C 77% 1.2 mph NE1.9 kmh NE 3.5 mph5.6 kmh 29.59 in1002.0 mb - 0.00 in0.0 mm 0.00 in0.0 mm
02:05 AM 41.5°F5.3°C 35.2°F1.8°C 78% 3.5 mph NE5.6 kmh NE 3.5 mph5.6 kmh 29.59 in1002.0 mb - 0.00 in0.0 mm 0.00 in0.0 mm
02:10 AM 41.3°F5.2°C 35.0°F1.7°C 78% 2.3 mph NE3.7 kmh NE 3.5 mph5.6 kmh 29.59 in1002.0 mb - 0.00 in0.0 mm 0.00 in0.0 mm
02:15 AM 41.2°F5.1°C 34.5°F1.4°C 77% 1.2 mph NE1.9 kmh NE 2.3 mph3.7 kmh 29.59 in1002.0 mb - 0.00 in0.0 mm 0.00 in0.0 mm
02:20 AM 41.2°F5.1°C 34.5°F1.4°C 77% 2.3 mph NE3.7 kmh NE 3.5 mph5.6 kmh 29.59 in1002.0 mb - 0.00 in0.0 mm 0.00 in0.0 mm
02:25 AM 41.2°F5.1°C 34.5°F1.4°C 77% 2.3 mph NE3.7 kmh NE 3.5 mph5.6 kmh 29.59 in1002.0 mb - 0.00 in0.0 mm 0.00 in0.0 mm
02:30 AM 41.1°F5.1°C 34.4°F1.3°C 77% Calm Calm -- 29.60 in1002.4 mb - 0.00 in0.0 mm 0.00 in0.0 mm
02:35 AM 40.8°F4.9°C 34.2°F1.2°C 77% 1.2 mph NE1.9 kmh NE 3.5 mph5.6 kmh 29.60 in1002.4 mb - 0.00 in0.0 mm 0.00 in0.0 mm
02:40 AM 40.6°F4.8°C 34.0°F1.1°C 77% 3.5 mph NE5.6 kmh NE 3.5 mph5.6 kmh 29.60 in1002.4 mb - 0.00 in0.0 mm 0.00 in0.0 mm
02:45 AM 40.6°F4.8°C 33.9°F1.1°C 77% 1.2 mph NE1.9 kmh NE 2.3 mph3.7 kmh 29.60 in1002.4 mb - 0.00 in0.0 mm 0.00 in0.0 mm
02:50 AM 40.3°F4.6°C 33.7°F0.9°C 77% 1.2 mph NE1.9 kmh NE 3.5 mph5.6 kmh 29.60 in1002.4 mb - 0.00 in0.0 mm 0.00 in0.0 mm
02:55 AM 40.4°F4.7°C 33.8°F1.0°C 77% Calm Calm -- 29.60 in1002.4 mb - 0.00 in0.0 mm 0.00 in0.0 mm
03:00 AM 40.2°F4.6°C 33.6°F0.9°C 77% Calm Calm -- 29.60 in1002.4 mb - 0.00 in0.0 mm 0.00 in0.0 mm
03:05 AM 40.1°F4.5°C 33.4°F0.8°C 77% Calm Calm -- 29.60 in1002.4 mb - 0.00 in0.0 mm 0.00 in0.0 mm
03:10 AM 39.9°F4.4°C 33.3°F0.7°C 77% Calm Calm -- 29.60 in1002.4 mb - 0.00 in0.0 mm 0.00 in0.0 mm
03:15 AM 39.8°F4.3°C 33.2°F0.7°C 77% Calm Calm -- 29.61 in1002.7 mb - 0.00 in0.0 mm 0.00 in0.0 mm
03:20 AM 39.8°F4.3°C 33.2°F0.7°C 77% Calm Calm -- 29.61 in1002.7 mb - 0.00 in0.0 mm 0.00 in0.0 mm
03:25 AM 40.0°F4.4°C 33.3°F0.7°C 77% 1.2 mph NE1.9 kmh NE 3.5 mph5.6 kmh 29.61 in1002.7 mb - 0.00 in0.0 mm 0.00 in0.0 mm
03:30 AM 40.1°F4.5°C 33.5°F0.8°C 77% 2.3 mph NE3.7 kmh NE 3.5 mph5.6 kmh 29.61 in1002.7 mb - 0.00 in0.0 mm 0.00 in0.0 mm
03:35 AM 40.1°F4.5°C 33.5°F0.8°C 77% 2.3 mph NE3.7 kmh NE 2.3 mph3.7 kmh 29.61 in1002.7 mb - 0.00 in0.0 mm 0.00 in0.0 mm
03:40 AM 40.3°F4.6°C 33.6°F0.9°C 77% 2.3 mph NE3.7 kmh NE 3.5 mph5.6 kmh 29.62 in1003.0 mb - 0.00 in0.0 mm 0.00 in0.0 mm
03:45 AM 40.2°F4.6°C 33.6°F0.9°C 77% 1.2 mph NE1.9 kmh NE 3.5 mph5.6 kmh 29.62 in1003.0 mb - 0.00 in0.0 mm 0.00 in0.0 mm
03:50 AM 40.0°F4.4°C 33.4°F0.8°C 77% 1.2 mph NE1.9 kmh NE 3.5 mph5.6 kmh 29.62 in1003.0 mb - 0.00 in0.0 mm 0.00 in0.0 mm
03:55 AM 39.8°F4.3°C 33.2°F0.7°C 77% 1.2 mph NE1.9 kmh NE 2.3 mph3.7 kmh 29.62 in1003.0 mb - 0.00 in0.0 mm 0.00 in0.0 mm
04:00 AM 39.7°F4.3°C 33.1°F0.6°C 77% 2.3 mph NE3.7 kmh NE 3.5 mph5.6 kmh 29.62 in1003.0 mb - 0.00 in0.0 mm 0.00 in0.0 mm
04:05 AM 39.7°F4.3°C 33.1°F0.6°C 77% 2.3 mph NE3.7 kmh NE 3.5 mph5.6 kmh 29.63 in1003.4 mb - 0.00 in0.0 mm 0.00 in0.0 mm
04:10 AM 39.7°F4.3°C 33.1°F0.6°C 77% 3.5 mph ENE5.6 kmh ENE 5.8 mph9.3 kmh 29.63 in1003.4 mb - 0.00 in0.0 mm 0.00 in0.0 mm
04:15 AM 39.7°F4.3°C 33.1°F0.6°C 77% 4.6 mph ENE7.4 kmh ENE 5.8 mph9.3 kmh 29.63 in1003.4 mb - 0.00 in0.0 mm 0.00 in0.0 mm
04:20 AM 39.3°F4.1°C 32.7°F0.4°C 77% 5.8 mph E9.3 kmh E 8.1 mph13.0 kmh 29.63 in1003.4 mb - 0.00 in0.0 mm 0.00 in0.0 mm
04:25 AM 39.1°F3.9°C 32.5°F0.3°C 77% 3.5 mph E5.6 kmh E 4.6 mph7.4 kmh 29.64 in1003.7 mb - 0.00 in0.0 mm 0.00 in0.0 mm
04:30 AM 39.2°F4.0°C 32.6°F0.3°C 77% 2.3 mph E3.7 kmh E 3.5 mph5.6 kmh 29.64 in1003.7 mb - 0.00 in0.0 mm 0.00 in0.0 mm
04:35 AM 39.1°F3.9°C 32.5°F0.3°C 77% 2.3 mph E3.7 kmh E 4.6 mph7.4 kmh 29.64 in1003.7 mb - 0.00 in0.0 mm 0.00 in0.0 mm
04:40 AM 39.1°F3.9°C 32.5°F0.3°C 77% 3.5 mph ESE5.6 kmh ESE 5.8 mph9.3 kmh 29.64 in1003.7 mb - 0.00 in0.0 mm 0.00 in0.0 mm
04:45 AM 39.0°F3.9°C 32.4°F0.2°C 77% 4.6 mph ENE7.4 kmh ENE 4.6 mph7.4 kmh 29.64 in1003.7 mb - 0.00 in0.0 mm 0.00 in0.0 mm
04:50 AM 38.8°F3.8°C 32.2°F0.1°C 77% 3.5 mph ENE5.6 kmh ENE 4.6 mph7.4 kmh 29.64 in1003.7 mb - 0.00 in0.0 mm 0.00 in0.0 mm
04:55 AM 38.8°F3.8°C 32.2°F0.1°C 77% 2.3 mph ENE3.7 kmh ENE 3.5 mph5.6 kmh 29.64 in1003.7 mb - 0.00 in0.0 mm 0.00 in0.0 mm
05:00 AM 38.7°F3.7°C 32.1°F0.1°C 77% Calm Calm 1.2 mph1.9 kmh 29.64 in1003.7 mb - 0.00 in0.0 mm 0.00 in0.0 mm
05:05 AM 38.5°F3.6°C 31.9°F-0.1°C 77% Calm Calm 2.3 mph3.7 kmh 29.65 in1004.1 mb - 0.00 in0.0 mm 0.00 in0.0 mm
05:10 AM 38.4°F3.6°C 31.8°F-0.1°C 77% 2.3 mph ENE3.7 kmh ENE 3.5 mph5.6 kmh 29.65 in1004.1 mb - 0.00 in0.0 mm 0.00 in0.0 mm
05:15 AM 38.4°F3.6°C 31.8°F-0.1°C 77% 1.2 mph ENE1.9 kmh ENE 3.5 mph5.6 kmh 29.65 in1004.1 mb - 0.00 in0.0 mm 0.00 in0.0 mm
05:20 AM 38.6°F3.7°C 32.0°F0.0°C 77% 3.5 mph ENE5.6 kmh ENE 5.8 mph9.3 kmh 29.65 in1004.1 mb - 0.00 in0.0 mm 0.00 in0.0 mm
05:25 AM 38.8°F3.8°C 32.2°F0.1°C 77% 3.5 mph ENE5.6 kmh ENE 4.6 mph7.4 kmh 29.65 in1004.1 mb - 0.00 in0.0 mm 0.00 in0.0 mm
05:30 AM 38.8°F3.8°C 32.2°F0.1°C 77% 4.6 mph E7.4 kmh E 6.9 mph11.1 kmh 29.66 in1004.4 mb - 0.00 in0.0 mm 0.00 in0.0 mm
05:35 AM 38.8°F3.8°C 32.2°F0.1°C 77% 4.6 mph E7.4 kmh E 9.2 mph14.8 kmh 29.66 in1004.4 mb - 0.00 in0.0 mm 0.00 in0.0 mm
05:40 AM 39.1°F3.9°C 32.5°F0.3°C 77% 4.6 mph E7.4 kmh E 4.6 mph7.4 kmh 29.66 in1004.4 mb - 0.00 in0.0 mm 0.00 in0.0 mm
05:45 AM 39.1°F3.9°C 32.5°F0.3°C 77% 4.6 mph ENE7.4 kmh ENE 6.9 mph11.1 kmh 29.66 in1004.4 mb - 0.00 in0.0 mm 0.00 in0.0 mm
05:50 AM 39.1°F3.9°C 32.5°F0.3°C 77% 4.6 mph E7.4 kmh E 4.6 mph7.4 kmh 29.66 in1004.4 mb - 0.00 in0.0 mm 0.00 in0.0 mm
05:55 AM 39.1°F3.9°C 32.5°F0.3°C 77% 3.5 mph E5.6 kmh E 3.5 mph5.6 kmh 29.67 in1004.7 mb - 0.00 in0.0 mm 0.00 in0.0 mm
06:00 AM 39.0°F3.9°C 32.4°F0.2°C 77% 6.9 mph ENE11.1 kmh ENE 8.1 mph13.0 kmh 29.66 in1004.4 mb - 0.00 in0.0 mm 0.00 in0.0 mm
06:05 AM 38.7°F3.7°C 32.1°F0.1°C 77% 4.6 mph E7.4 kmh E 6.9 mph11.1 kmh 29.66 in1004.4 mb - 0.00 in0.0 mm 0.00 in0.0 mm
06:10 AM 38.6°F3.7°C 32.0°F0.0°C 77% 3.5 mph E5.6 kmh E 5.8 mph9.3 kmh 29.66 in1004.4 mb - 0.00 in0.0 mm 0.00 in0.0 mm
06:15 AM 38.5°F3.6°C 31.9°F-0.1°C 77% 3.5 mph E5.6 kmh E 3.5 mph5.6 kmh 29.66 in1004.4 mb - 0.00 in0.0 mm 0.00 in0.0 mm
06:20 AM 38.3°F3.5°C 32.0°F0.0°C 78% 3.5 mph E5.6 kmh E 3.5 mph5.6 kmh 29.66 in1004.4 mb - 0.00 in0.0 mm 0.00 in0.0 mm
06:25 AM 37.9°F3.3°C 31.3°F-0.4°C 77% 3.5 mph NE5.6 kmh NE 3.5 mph5.6 kmh 29.66 in1004.4 mb - 0.00 in0.0 mm 0.00 in0.0 mm
06:30 AM 37.5°F3.1°C 31.2°F-0.4°C 78% 3.5 mph NE5.6 kmh NE 4.6 mph7.4 kmh 29.66 in1004.4 mb - 0.00 in0.0 mm 0.00 in0.0 mm
06:35 AM 37.3°F2.9°C 31.1°F-0.5°C 78% 3.5 mph E5.6 kmh E 4.6 mph7.4 kmh 29.66 in1004.4 mb - 0.00 in0.0 mm 0.00 in0.0 mm
06:40 AM 37.3°F2.9°C 31.1°F-0.5°C 78% 2.3 mph E3.7 kmh E 3.5 mph5.6 kmh 29.66 in1004.4 mb - 0.00 in0.0 mm 0.00 in0.0 mm
06:45 AM 37.1°F2.8°C 30.9°F-0.6°C 78% 3.5 mph NE5.6 kmh NE 3.5 mph5.6 kmh 29.66 in1004.4 mb - 0.00 in0.0 mm 0.00 in0.0 mm
06:50 AM 37.0°F2.8°C 30.8°F-0.7°C 78% 4.6 mph E7.4 kmh E 6.9 mph11.1 kmh 29.66 in1004.4 mb - 0.00 in0.0 mm 0.00 in0.0 mm
06:55 AM 37.0°F2.8°C 30.8°F-0.7°C 78% 2.3 mph NE3.7 kmh NE 3.5 mph5.6 kmh 29.66 in1004.4 mb - 0.00 in0.0 mm 0.00 in0.0 mm
07:00 AM 36.9°F2.7°C 30.7°F-0.7°C 78% 2.3 mph NE3.7 kmh NE 3.5 mph5.6 kmh 29.66 in1004.4 mb - 0.00 in0.0 mm 0.00 in0.0 mm
07:05 AM 36.8°F2.7°C 30.6°F-0.8°C 78% 3.5 mph ENE5.6 kmh ENE 4.6 mph7.4 kmh 29.66 in1004.4 mb - 0.00 in0.0 mm 0.00 in0.0 mm
07:10 AM 36.9°F2.7°C 30.7°F-0.7°C 78% 3.5 mph NE5.6 kmh NE 4.6 mph7.4 kmh 29.66 in1004.4 mb - 0.00 in0.0 mm 0.00 in0.0 mm
07:15 AM 37.0°F2.8°C 30.5°F-0.8°C 77% 2.3 mph E3.7 kmh E 3.5 mph5.6 kmh 29.66 in1004.4 mb - 0.00 in0.0 mm 0.00 in0.0 mm
07:20 AM 37.1°F2.8°C 30.6°F-0.8°C 77% 2.3 mph ENE3.7 kmh ENE 3.5 mph5.6 kmh 29.65 in1004.1 mb - 0.00 in0.0 mm 0.00 in0.0 mm
07:25 AM 37.3°F2.9°C 30.7°F-0.7°C 77% 2.3 mph ENE3.7 kmh ENE 3.5 mph5.6 kmh 29.66 in1004.4 mb - 0.00 in0.0 mm 0.00 in0.0 mm
07:30 AM 37.5°F3.1°C 30.9°F-0.6°C 77% 2.3 mph ENE3.7 kmh ENE 3.5 mph5.6 kmh 29.66 in1004.4 mb - 0.01 in0.3 mm 0.01 in0.3 mm
07:35 AM 37.6°F3.1°C 31.0°F-0.6°C 77% 2.3 mph NE3.7 kmh NE 3.5 mph5.6 kmh 29.66 in1004.4 mb - 0.00 in0.0 mm 0.01 in0.3 mm
07:40 AM 37.8°F3.2°C 31.2°F-0.4°C 77% 4.6 mph E7.4 kmh E 4.6 mph7.4 kmh 29.66 in1004.4 mb - 0.01 in0.3 mm 0.02 in0.5 mm
07:45 AM 38.3°F3.5°C 31.7°F-0.2°C 77% 4.6 mph E7.4 kmh E 6.9 mph11.1 kmh 29.66 in1004.4 mb - 0.00 in0.0 mm 0.02 in0.5 mm
07:50 AM 38.7°F3.7°C 32.1°F0.1°C 77% 6.9 mph E11.1 kmh E 10.4 mph16.7 kmh 29.66 in1004.4 mb - 0.01 in0.3 mm 0.03 in0.8 mm
07:55 AM 39.1°F3.9°C 32.5°F0.3°C 77% 4.6 mph E7.4 kmh E 8.1 mph13.0 kmh 29.67 in1004.7 mb - 0.00 in0.0 mm 0.03 in0.8 mm
08:00 AM 39.5°F4.2°C 32.8°F0.4°C 77% 4.6 mph E7.4 kmh E 8.1 mph13.0 kmh 29.67 in1004.7 mb - 0.00 in0.0 mm 0.03 in0.8 mm
08:05 AM 39.7°F4.3°C 33.1°F0.6°C 77% 4.6 mph E7.4 kmh E 9.2 mph14.8 kmh 29.67 in1004.7 mb - 0.00 in0.0 mm 0.03 in0.8 mm
08:10 AM 39.9°F4.4°C 33.3°F0.7°C 77% 2.3 mph ESE3.7 kmh ESE 2.3 mph3.7 kmh 29.68 in1005.1 mb - 0.00 in0.0 mm 0.03 in0.8 mm
08:15 AM 40.1°F4.5°C 33.4°F0.8°C 77% 3.5 mph ESE5.6 kmh ESE 5.8 mph9.3 kmh 29.68 in1005.1 mb - 0.00 in0.0 mm 0.03 in0.8 mm
08:20 AM 40.4°F4.7°C 33.8°F1.0°C 77% 4.6 mph E7.4 kmh E 6.9 mph11.1 kmh 29.68 in1005.1 mb - 0.01 in0.3 mm 0.03 in0.8 mm
08:25 AM 40.7°F4.8°C 34.0°F1.1°C 77% 2.3 mph E3.7 kmh E 4.6 mph7.4 kmh 29.68 in1005.1 mb - 0.00 in0.0 mm 0.03 in0.8 mm
08:30 AM 40.9°F4.9°C 34.2°F1.2°C 77% 4.6 mph ENE7.4 kmh ENE 5.8 mph9.3 kmh 29.68 in1005.1 mb - 0.02 in0.5 mm 0.05 in1.3 mm
08:35 AM 40.8°F4.9°C 34.1°F1.2°C 77% 4.6 mph E7.4 kmh E 6.9 mph11.1 kmh 29.68 in1005.1 mb - 0.00 in0.0 mm 0.05 in1.3 mm
08:40 AM 40.8°F4.9°C 34.1°F1.2°C 77% 5.8 mph E9.3 kmh E 8.1 mph13.0 kmh 29.69 in1005.4 mb - 0.00 in0.0 mm 0.05 in1.3 mm
08:45 AM 41.0°F5.0°C 34.3°F1.3°C 77% 3.5 mph E5.6 kmh E 9.2 mph14.8 kmh 29.69 in1005.4 mb - 0.00 in0.0 mm 0.05 in1.3 mm
08:50 AM 41.3°F5.2°C 34.6°F1.4°C 77% 5.8 mph E9.3 kmh E 9.2 mph14.8 kmh 29.69 in1005.4 mb - 0.00 in0.0 mm 0.05 in1.3 mm
08:55 AM 41.4°F5.2°C 34.7°F1.5°C 77% 5.8 mph E9.3 kmh E 9.2 mph14.8 kmh 29.69 in1005.4 mb - 0.00 in0.0 mm 0.05 in1.3 mm
09:00 AM 41.5°F5.3°C 34.8°F1.6°C 77% 5.8 mph E9.3 kmh E 8.1 mph13.0 kmh 29.69 in1005.4 mb - 0.00 in0.0 mm 0.05 in1.3 mm
09:05 AM 41.6°F5.3°C 34.9°F1.6°C 77% 4.6 mph E7.4 kmh E 8.1 mph13.0 kmh 29.69 in1005.4 mb - 0.00 in0.0 mm 0.05 in1.3 mm
09:10 AM 41.8°F5.4°C 35.1°F1.7°C 77% 5.8 mph E9.3 kmh E 9.2 mph14.8 kmh 29.69 in1005.4 mb - 0.00 in0.0 mm 0.05 in1.3 mm
09:15 AM 42.2°F5.7°C 35.5°F1.9°C 77% 5.8 mph E9.3 kmh E 8.1 mph13.0 kmh 29.69 in1005.4 mb - 0.00 in0.0 mm 0.05 in1.3 mm
09:20 AM 42.7°F5.9°C 36.0°F2.2°C 77% 4.6 mph ESE7.4 kmh ESE 8.1 mph13.0 kmh 29.69 in1005.4 mb - 0.00 in0.0 mm 0.05 in1.3 mm
09:25 AM 42.9°F6.1°C 36.5°F2.5°C 78% 4.6 mph ESE7.4 kmh ESE 9.2 mph14.8 kmh 29.69 in1005.4 mb - 0.00 in0.0 mm 0.05 in1.3 mm
09:30 AM 42.8°F6.0°C 36.4°F2.4°C 78% 5.8 mph E9.3 kmh E 9.2 mph14.8 kmh 29.69 in1005.4 mb - 0.00 in0.0 mm 0.05 in1.3 mm
09:35 AM 42.8°F6.0°C 36.4°F2.4°C 78% 3.5 mph SE5.6 kmh SE 5.8 mph9.3 kmh 29.69 in1005.4 mb - 0.00 in0.0 mm 0.05 in1.3 mm
09:40 AM 42.9°F6.1°C 36.5°F2.5°C 78% 6.9 mph E11.1 kmh E 8.1 mph13.0 kmh 29.69 in1005.4 mb - 0.00 in0.0 mm 0.05 in1.3 mm
09:45 AM 43.3°F6.3°C 36.9°F2.7°C 78% 4.6 mph ESE7.4 kmh ESE 6.9 mph11.1 kmh 29.70 in1005.8 mb - 0.00 in0.0 mm 0.05 in1.3 mm
09:50 AM 43.7°F6.5°C 37.2°F2.9°C 78% 4.6 mph SE7.4 kmh SE 5.8 mph9.3 kmh 29.70 in1005.8 mb - 0.00 in0.0 mm 0.05 in1.3 mm
09:55 AM 43.9°F6.6°C 37.5°F3.1°C 78% 4.6 mph ESE7.4 kmh ESE 6.9 mph11.1 kmh 29.70 in1005.8 mb - 0.00 in0.0 mm 0.05 in1.3 mm
10:00 AM 44.3°F6.8°C 37.9°F3.3°C 78% 5.8 mph E9.3 kmh E 9.2 mph14.8 kmh 29.70 in1005.8 mb - 0.00 in0.0 mm 0.05 in1.3 mm
10:05 AM 44.5°F6.9°C 38.1°F3.4°C 78% 5.8 mph ESE9.3 kmh ESE 8.1 mph13.0 kmh 29.70 in1005.8 mb - 0.00 in0.0 mm 0.05 in1.3 mm
10:10 AM 44.6°F7.0°C 38.5°F3.6°C 79% 4.6 mph ESE7.4 kmh ESE 6.9 mph11.1 kmh 29.70 in1005.8 mb - 0.00 in0.0 mm 0.05 in1.3 mm
10:15 AM 44.7°F7.1°C 38.6°F3.7°C 79% 4.6 mph E7.4 kmh E 6.9 mph11.1 kmh 29.70 in1005.8 mb - 0.00 in0.0 mm 0.05 in1.3 mm
10:20 AM 45.0°F7.2°C 38.9°F3.8°C 79% 6.9 mph E11.1 kmh E 8.1 mph13.0 kmh 29.70 in1005.8 mb - 0.00 in0.0 mm 0.05 in1.3 mm
10:25 AM 45.4°F7.4°C 39.2°F4.0°C 79% 6.9 mph E11.1 kmh E 10.4 mph16.7 kmh 29.70 in1005.8 mb - 0.00 in0.0 mm 0.05 in1.3 mm
10:30 AM 45.8°F7.7°C 39.6°F4.2°C 79% 6.9 mph E11.1 kmh E 10.4 mph16.7 kmh 29.71 in1006.1 mb - 0.00 in0.0 mm 0.05 in1.3 mm
10:35 AM 46.2°F7.9°C 40.0°F4.4°C 79% 6.9 mph E11.1 kmh E 10.4 mph16.7 kmh 29.71 in1006.1 mb - 0.00 in0.0 mm 0.05 in1.3 mm
10:40 AM 46.4°F8.0°C 40.2°F4.6°C 79% 5.8 mph E9.3 kmh E 8.1 mph13.0 kmh 29.71 in1006.1 mb - 0.00 in0.0 mm 0.05 in1.3 mm
10:45 AM 46.7°F8.2°C 40.6°F4.8°C 79% 4.6 mph E7.4 kmh E 6.9 mph11.1 kmh 29.71 in1006.1 mb - 0.00 in0.0 mm 0.05 in1.3 mm
10:50 AM 47.2°F8.4°C 41.0°F5.0°C 79% 4.6 mph ENE7.4 kmh ENE 8.1 mph13.0 kmh 29.71 in1006.1 mb - 0.00 in0.0 mm 0.05 in1.3 mm
10:55 AM 47.7°F8.7°C 41.5°F5.3°C 79% 5.8 mph E9.3 kmh E 6.9 mph11.1 kmh 29.71 in1006.1 mb - 0.00 in0.0 mm 0.05 in1.3 mm
11:00 AM 48.3°F9.1°C 42.1°F5.6°C 79% 5.8 mph E9.3 kmh E 9.2 mph14.8 kmh 29.71 in1006.1 mb - 0.00 in0.0 mm 0.05 in1.3 mm
11:05 AM 48.7°F9.3°C 42.5°F5.8°C 79% 4.6 mph SE7.4 kmh SE 6.9 mph11.1 kmh 29.71 in1006.1 mb - 0.00 in0.0 mm 0.05 in1.3 mm
11:10 AM 49.1°F9.5°C 42.9°F6.1°C 79% 5.8 mph SE9.3 kmh SE 8.1 mph13.0 kmh 29.71 in1006.1 mb - 0.00 in0.0 mm 0.05 in1.3 mm
11:15 AM 49.3°F9.6°C 42.7°F5.9°C 78% 5.8 mph ESE9.3 kmh ESE 5.8 mph9.3 kmh 29.71 in1006.1 mb - 0.00 in0.0 mm 0.05 in1.3 mm
11:20 AM 49.5°F9.7°C 42.9°F6.1°C 78% 5.8 mph ESE9.3 kmh ESE 10.4 mph16.7 kmh 29.71 in1006.1 mb - 0.00 in0.0 mm 0.05 in1.3 mm
11:25 AM 49.5°F9.7°C 42.9°F6.1°C 78% 4.6 mph ESE7.4 kmh ESE 8.1 mph13.0 kmh 29.71 in1006.1 mb - 0.00 in0.0 mm 0.05 in1.3 mm
11:30 AM 49.7°F9.8°C 43.1°F6.2°C 78% 4.6 mph E7.4 kmh E 5.8 mph9.3 kmh 29.71 in1006.1 mb - 0.00 in0.0 mm 0.05 in1.3 mm
11:35 AM 50.0°F10.0°C 43.4°F6.3°C 78% 4.6 mph ESE7.4 kmh ESE 6.9 mph11.1 kmh 29.71 in1006.1 mb - 0.00 in0.0 mm 0.05 in1.3 mm
11:40 AM 50.1°F10.1°C 43.2°F6.2°C 77% 4.6 mph E7.4 kmh E 8.1 mph13.0 kmh 29.71 in1006.1 mb - 0.00 in0.0 mm 0.05 in1.3 mm
11:45 AM 50.0°F10.0°C 43.1°F6.2°C 77% 4.6 mph E7.4 kmh E 6.9 mph11.1 kmh 29.71 in1006.1 mb - 0.00 in0.0 mm 0.05 in1.3 mm
11:50 AM 50.0°F10.0°C 43.4°F6.3°C 78% 5.8 mph E9.3 kmh E 6.9 mph11.1 kmh 29.71 in1006.1 mb - 0.00 in0.0 mm 0.05 in1.3 mm
11:55 AM 50.1°F10.1°C 43.2°F6.2°C 77% 5.8 mph ENE9.3 kmh ENE 8.1 mph13.0 kmh 29.71 in1006.1 mb - 0.00 in0.0 mm 0.05 in1.3 mm
12:00 PM 50.1°F10.1°C 43.2°F6.2°C 77% 6.9 mph ENE11.1 kmh ENE 9.2 mph14.8 kmh 29.71 in1006.1 mb - 0.00 in0.0 mm 0.05 in1.3 mm
12:05 PM 50.2°F10.1°C 43.6°F6.4°C 78% 6.9 mph E11.1 kmh E 10.4 mph16.7 kmh 29.71 in1006.1 mb - 0.00 in0.0 mm 0.05 in1.3 mm
12:10 PM 50.4°F10.2°C 43.5°F6.4°C 77% 5.8 mph ENE9.3 kmh ENE 9.2 mph14.8 kmh 29.71 in1006.1 mb - 0.00 in0.0 mm 0.05 in1.3 mm
12:15 PM 50.5°F10.3°C 43.6°F6.4°C 77% 5.8 mph E9.3 kmh E 9.2 mph14.8 kmh 29.71 in1006.1 mb - 0.00 in0.0 mm 0.05 in1.3 mm
12:20 PM 51.0°F10.6°C 44.0°F6.7°C 77% 2.3 mph SSE3.7 kmh SSE 9.2 mph14.8 kmh 29.71 in1006.1 mb - 0.00 in0.0 mm 0.05 in1.3 mm
12:25 PM 51.8°F11.0°C 44.4°F6.9°C 76% 5.8 mph SSE9.3 kmh SSE 9.2 mph14.8 kmh 29.71 in1006.1 mb - 0.00 in0.0 mm 0.05 in1.3 mm
12:30 PM 52.2°F11.2°C 44.5°F6.9°C 75% 4.6 mph SSE7.4 kmh SSE 4.6 mph7.4 kmh 29.71 in1006.1 mb - 0.00 in0.0 mm 0.05 in1.3 mm
12:35 PM 52.4°F11.3°C 44.4°F6.9°C 74% 3.5 mph S5.6 kmh S 5.8 mph9.3 kmh 29.71 in1006.1 mb - 0.00 in0.0 mm 0.05 in1.3 mm
12:40 PM 52.4°F11.3°C 44.0°F6.7°C 73% 3.5 mph SE5.6 kmh SE 8.1 mph13.0 kmh 29.72 in1006.4 mb - 0.00 in0.0 mm 0.05 in1.3 mm
12:45 PM 52.5°F11.4°C 44.1°F6.7°C 73% 3.5 mph SE5.6 kmh SE 8.1 mph13.0 kmh 29.72 in1006.4 mb - 0.00 in0.0 mm 0.05 in1.3 mm
12:50 PM 52.2°F11.2°C 43.8°F6.6°C 73% 2.3 mph S3.7 kmh S 3.5 mph5.6 kmh 29.72 in1006.4 mb - 0.00 in0.0 mm 0.05 in1.3 mm
12:55 PM 51.8°F11.0°C 43.4°F6.3°C 73% 4.6 mph S7.4 kmh S 5.8 mph9.3 kmh 29.72 in1006.4 mb - 0.00 in0.0 mm 0.05 in1.3 mm
01:00 PM 51.6°F10.9°C 43.6°F6.4°C 74% 1.2 mph S1.9 kmh S 2.3 mph3.7 kmh 29.71 in1006.1 mb - 0.00 in0.0 mm 0.05 in1.3 mm
01:05 PM 51.6°F10.9°C 43.6°F6.4°C 74% 2.3 mph SSE3.7 kmh SSE 6.9 mph11.1 kmh 29.71 in1006.1 mb - 0.00 in0.0 mm 0.05 in1.3 mm
01:10 PM 51.4°F10.8°C 43.0°F6.1°C 73% 3.5 mph SE5.6 kmh SE 5.8 mph9.3 kmh 29.71 in1006.1 mb - 0.00 in0.0 mm 0.05 in1.3 mm
01:15 PM 51.1°F10.6°C 43.1°F6.2°C 74% 2.3 mph SSE3.7 kmh SSE 3.5 mph5.6 kmh 29.72 in1006.4 mb - 0.00 in0.0 mm 0.05 in1.3 mm
01:20 PM 51.0°F10.6°C 43.4°F6.3°C 75% 2.3 mph SE3.7 kmh SE 3.5 mph5.6 kmh 29.72 in1006.4 mb - 0.00 in0.0 mm 0.05 in1.3 mm
01:25 PM 51.0°F10.6°C 43.4°F6.3°C 75% 2.3 mph E3.7 kmh E 3.5 mph5.6 kmh 29.72 in1006.4 mb - 0.00 in0.0 mm 0.05 in1.3 mm
01:30 PM 51.0°F10.6°C 43.7°F6.5°C 76% 3.5 mph SSE5.6 kmh SSE 4.6 mph7.4 kmh 29.71 in1006.1 mb - 0.00 in0.0 mm 0.05 in1.3 mm
01:35 PM 50.9°F10.5°C 43.3°F6.3°C 75% 2.3 mph SE3.7 kmh SE 6.9 mph11.1 kmh 29.72 in1006.4 mb - 0.00 in0.0 mm 0.05 in1.3 mm
01:40 PM 50.8°F10.4°C 43.2°F6.2°C 75% 4.6 mph ESE7.4 kmh ESE 5.8 mph9.3 kmh 29.71 in1006.1 mb - 0.00 in0.0 mm 0.05 in1.3 mm
01:45 PM 50.6°F10.3°C 43.0°F6.1°C 75% 3.5 mph E5.6 kmh E 5.8 mph9.3 kmh 29.71 in1006.1 mb - 0.00 in0.0 mm 0.05 in1.3 mm
01:50 PM 50.6°F10.3°C 43.3°F6.3°C 76% 3.5 mph ESE5.6 kmh ESE 6.9 mph11.1 kmh 29.71 in1006.1 mb - 0.00 in0.0 mm 0.05 in1.3 mm
01:55 PM 50.6°F10.3°C 43.3°F6.3°C 76% 4.6 mph E7.4 kmh E 8.1 mph13.0 kmh 29.71 in1006.1 mb - 0.00 in0.0 mm 0.05 in1.3 mm
02:00 PM 50.5°F10.3°C 43.2°F6.2°C 76% 3.5 mph ESE5.6 kmh ESE 5.8 mph9.3 kmh 29.71 in1006.1 mb - 0.00 in0.0 mm 0.05 in1.3 mm
02:05 PM 50.4°F10.2°C 43.1°F6.2°C 76% 4.6 mph E7.4 kmh E 6.9 mph11.1 kmh 29.71 in1006.1 mb - 0.00 in0.0 mm 0.05 in1.3 mm
02:10 PM 50.4°F10.2°C 43.4°F6.3°C 77% 3.5 mph E5.6 kmh E 6.9 mph11.1 kmh 29.71 in1006.1 mb - 0.00 in0.0 mm 0.05 in1.3 mm
02:15 PM 50.3°F10.2°C 43.4°F6.3°C 77% 4.6 mph ESE7.4 kmh ESE 8.1 mph13.0 kmh 29.71 in1006.1 mb - 0.00 in0.0 mm 0.05 in1.3 mm
02:20 PM 50.2°F10.1°C 43.3°F6.3°C 77% 5.8 mph ESE9.3 kmh ESE 6.9 mph11.1 kmh 29.71 in1006.1 mb - 0.00 in0.0 mm 0.05 in1.3 mm
02:25 PM 50.1°F10.1°C 43.2°F6.2°C 77% 3.5 mph E5.6 kmh E 3.5 mph5.6 kmh 29.71 in1006.1 mb - 0.00 in0.0 mm 0.05 in1.3 mm
02:30 PM 50.1°F10.1°C 43.5°F6.4°C 78% 3.5 mph ESE5.6 kmh ESE 4.6 mph7.4 kmh 29.71 in1006.1 mb - 0.00 in0.0 mm 0.05 in1.3 mm
02:35 PM 50.0°F10.0°C 43.4°F6.3°C 78% 4.6 mph E7.4 kmh E 9.2 mph14.8 kmh 29.70 in1005.8 mb - 0.00 in0.0 mm 0.05 in1.3 mm
02:40 PM 49.9°F9.9°C 43.3°F6.3°C 78% 6.9 mph E11.1 kmh E 9.2 mph14.8 kmh 29.70 in1005.8 mb - 0.00 in0.0 mm 0.05 in1.3 mm
02:45 PM 49.9°F9.9°C 43.3°F6.3°C 78% 4.6 mph ESE7.4 kmh ESE 6.9 mph11.1 kmh 29.70 in1005.8 mb - 0.00 in0.0 mm 0.05 in1.3 mm
02:50 PM 49.8°F9.9°C 43.2°F6.2°C 78% 5.8 mph E9.3 kmh E 8.1 mph13.0 kmh 29.70 in1005.8 mb - 0.00 in0.0 mm 0.05 in1.3 mm
02:55 PM 49.7°F9.8°C 43.1°F6.2°C 78% 4.6 mph ESE7.4 kmh ESE 8.1 mph13.0 kmh 29.71 in1006.1 mb - 0.00 in0.0 mm 0.05 in1.3 mm
03:00 PM 49.7°F9.8°C 43.1°F6.2°C 78% 3.5 mph SE5.6 kmh SE 8.1 mph13.0 kmh 29.71 in1006.1 mb - 0.00 in0.0 mm 0.05 in1.3 mm
03:05 PM 49.6°F9.8°C 43.0°F6.1°C 78% 6.9 mph SE11.1 kmh SE 8.1 mph13.0 kmh 29.71 in1006.1 mb - 0.00 in0.0 mm 0.05 in1.3 mm
03:10 PM 49.6°F9.8°C 43.0°F6.1°C 78% 4.6 mph E7.4 kmh E 6.9 mph11.1 kmh 29.71 in1006.1 mb - 0.00 in0.0 mm 0.05 in1.3 mm
03:15 PM 49.6°F9.8°C 43.0°F6.1°C 78% 4.6 mph E7.4 kmh E 5.8 mph9.3 kmh 29.71 in1006.1 mb - 0.00 in0.0 mm 0.05 in1.3 mm
03:20 PM 49.5°F9.7°C 42.9°F6.1°C 78% 4.6 mph E7.4 kmh E 9.2 mph14.8 kmh 29.71 in1006.1 mb - 0.00 in0.0 mm 0.05 in1.3 mm
03:25 PM 49.3°F9.6°C 43.1°F6.2°C 79% 5.8 mph E9.3 kmh E 6.9 mph11.1 kmh 29.71 in1006.1 mb - 0.00 in0.0 mm 0.05 in1.3 mm
03:30 PM 49.2°F9.6°C 43.0°F6.1°C 79% 4.6 mph ESE7.4 kmh ESE 6.9 mph11.1 kmh 29.71 in1006.1 mb - 0.00 in0.0 mm 0.05 in1.3 mm
03:35 PM 49.1°F9.5°C 42.9°F6.1°C 79% 5.8 mph E9.3 kmh E 6.9 mph11.1 kmh 29.71 in1006.1 mb - 0.00 in0.0 mm 0.05 in1.3 mm
03:40 PM 49.1°F9.5°C 42.9°F6.1°C 79% 4.6 mph E7.4 kmh E 6.9 mph11.1 kmh 29.71 in1006.1 mb - 0.00 in0.0 mm 0.05 in1.3 mm
03:45 PM 49.1°F9.5°C 42.9°F6.1°C 79% 4.6 mph E7.4 kmh E 9.2 mph14.8 kmh 29.71 in1006.1 mb - 0.00 in0.0 mm 0.05 in1.3 mm
03:50 PM 49.1°F9.5°C 42.9°F6.1°C 79% 6.9 mph E11.1 kmh E 8.1 mph13.0 kmh 29.70 in1005.8 mb - 0.00 in0.0 mm 0.05 in1.3 mm
03:55 PM 49.2°F9.6°C 42.6°F5.9°C 78% 3.5 mph ESE5.6 kmh ESE 8.1 mph13.0 kmh 29.70 in1005.8 mb - 0.00 in0.0 mm 0.05 in1.3 mm
04:00 PM 49.2°F9.6°C 42.9°F6.1°C 79% 4.6 mph ESE7.4 kmh ESE 9.2 mph14.8 kmh 29.70 in1005.8 mb - 0.01 in0.3 mm 0.06 in1.5 mm
04:05 PM 49.1°F9.5°C 42.9°F6.1°C 79% 6.9 mph E11.1 kmh E 10.4 mph16.7 kmh 29.70 in1005.8 mb - 0.01 in0.3 mm 0.06 in1.5 mm
04:10 PM 49.0°F9.4°C 42.8°F6.0°C 79% 5.8 mph E9.3 kmh E 9.2 mph14.8 kmh 29.70 in1005.8 mb - 0.00 in0.0 mm 0.06 in1.5 mm
04:15 PM 48.9°F9.4°C 42.7°F5.9°C 79% 6.9 mph E11.1 kmh E 10.4 mph16.7 kmh 29.71 in1006.1 mb - 0.01 in0.3 mm 0.07 in1.8 mm
04:20 PM 48.8°F9.3°C 42.6°F5.9°C 79% 4.6 mph E7.4 kmh E 9.2 mph14.8 kmh 29.70 in1005.8 mb - 0.00 in0.0 mm 0.07 in1.8 mm
04:25 PM 48.7°F9.3°C 42.5°F5.8°C 79% 5.8 mph ESE9.3 kmh ESE 10.4 mph16.7 kmh 29.70 in1005.8 mb - 0.00 in0.0 mm 0.07 in1.8 mm
04:30 PM 48.6°F9.2°C 42.4°F5.8°C 79% 8.1 mph E13.0 kmh E 8.1 mph13.0 kmh 29.70 in1005.8 mb - 0.00 in0.0 mm 0.07 in1.8 mm
04:35 PM 48.6°F9.2°C 42.4°F5.8°C 79% 4.6 mph E7.4 kmh E 8.1 mph13.0 kmh 29.70 in1005.8 mb - 0.00 in0.0 mm 0.07 in1.8 mm
04:40 PM 48.6°F9.2°C 42.4°F5.8°C 79% 4.6 mph E7.4 kmh E 6.9 mph11.1 kmh 29.70 in1005.8 mb - 0.00 in0.0 mm 0.07 in1.8 mm
04:45 PM 48.6°F9.2°C 42.4°F5.8°C 79% 4.6 mph E7.4 kmh E 6.9 mph11.1 kmh 29.70 in1005.8 mb - 0.00 in0.0 mm 0.07 in1.8 mm
04:50 PM 48.6°F9.2°C 42.4°F5.8°C 79% 4.6 mph SE7.4 kmh SE 8.1 mph13.0 kmh 29.70 in1005.8 mb - 0.01 in0.3 mm 0.07 in1.8 mm
04:55 PM 48.4°F9.1°C 42.1°F5.6°C 79% 2.3 mph ESE3.7 kmh ESE 3.5 mph5.6 kmh 29.70 in1005.8 mb - 0.01 in0.3 mm 0.08 in2.0 mm
05:00 PM 48.2°F9.0°C 42.0°F5.6°C 79% 3.5 mph ESE5.6 kmh ESE 3.5 mph5.6 kmh 29.69 in1005.4 mb - 0.01 in0.3 mm 0.09 in2.3 mm
05:05 PM 48.0°F8.9°C 41.8°F5.4°C 79% 3.5 mph E5.6 kmh E 5.8 mph9.3 kmh 29.69 in1005.4 mb - 0.01 in0.3 mm 0.10 in2.5 mm
05:10 PM 47.8°F8.8°C 41.6°F5.3°C 79% 3.5 mph E5.6 kmh E 4.6 mph7.4 kmh 29.69 in1005.4 mb - 0.01 in0.3 mm 0.11 in2.8 mm
05:15 PM 47.6°F8.7°C 41.1°F5.1°C 78% 3.5 mph E5.6 kmh E 3.5 mph5.6 kmh 29.69 in1005.4 mb - 0.01 in0.3 mm 0.12 in3.0 mm
05:20 PM 47.5°F8.6°C 41.0°F5.0°C 78% 3.5 mph ESE5.6 kmh ESE 6.9 mph11.1 kmh 29.69 in1005.4 mb - 0.01 in0.3 mm 0.12 in3.0 mm
05:25 PM 47.3°F8.5°C 40.8°F4.9°C 78% 4.6 mph ESE7.4 kmh ESE 6.9 mph11.1 kmh 29.69 in1005.4 mb - 0.01 in0.3 mm 0.12 in3.0 mm
05:30 PM 47.3°F8.5°C 40.8°F4.9°C 78% 3.5 mph ESE5.6 kmh ESE 3.5 mph5.6 kmh 29.69 in1005.4 mb - 0.01 in0.3 mm 0.13 in3.3 mm
05:35 PM 47.2°F8.4°C 40.7°F4.8°C 78% 4.6 mph SE7.4 kmh SE 8.1 mph13.0 kmh 29.69 in1005.4 mb - 0.00 in0.0 mm 0.13 in3.3 mm
05:40 PM 47.2°F8.4°C 40.7°F4.8°C 78% 6.9 mph ESE11.1 kmh ESE 8.1 mph13.0 kmh 29.69 in1005.4 mb - 0.02 in0.5 mm 0.15 in3.8 mm
05:45 PM 47.1°F8.4°C 40.6°F4.8°C 78% 4.6 mph E7.4 kmh E 6.9 mph11.1 kmh 29.69 in1005.4 mb - 0.01 in0.3 mm 0.16 in4.1 mm
05:50 PM 47.0°F8.3°C 40.5°F4.7°C 78% 5.8 mph E9.3 kmh E 8.1 mph13.0 kmh 29.69 in1005.4 mb - 0.01 in0.3 mm 0.17 in4.3 mm
05:55 PM 46.9°F8.3°C 40.4°F4.7°C 78% 5.8 mph E9.3 kmh E 8.1 mph13.0 kmh 29.69 in1005.4 mb - 0.01 in0.3 mm 0.17 in4.3 mm
06:00 PM 46.8°F8.2°C 40.3°F4.6°C 78% 8.1 mph E13.0 kmh E 9.2 mph14.8 kmh 29.69 in1005.4 mb - 0.01 in0.3 mm 0.18 in4.6 mm
06:05 PM 46.8°F8.2°C 40.0°F4.4°C 77% 5.8 mph E9.3 kmh E 6.9 mph11.1 kmh 29.69 in1005.4 mb - 0.00 in0.0 mm 0.18 in4.6 mm
06:10 PM 46.8°F8.2°C 40.0°F4.4°C 77% 3.5 mph ESE5.6 kmh ESE 5.8 mph9.3 kmh 29.69 in1005.4 mb - 0.01 in0.3 mm 0.19 in4.8 mm
06:15 PM 46.8°F8.2°C 40.0°F4.4°C 77% 3.5 mph ENE5.6 kmh ENE 4.6 mph7.4 kmh 29.69 in1005.4 mb - 0.01 in0.3 mm 0.20 in5.1 mm
06:20 PM 46.8°F8.2°C 40.0°F4.4°C 77% 4.6 mph E7.4 kmh E 6.9 mph11.1 kmh 29.68 in1005.1 mb - 0.01 in0.3 mm 0.21 in5.3 mm
06:25 PM 46.8°F8.2°C 39.9°F4.4°C 77% 5.8 mph E9.3 kmh E 9.2 mph14.8 kmh 29.68 in1005.1 mb - 0.02 in0.5 mm 0.22 in5.6 mm
06:30 PM 46.8°F8.2°C 40.0°F4.4°C 77% 4.6 mph E7.4 kmh E 8.1 mph13.0 kmh 29.68 in1005.1 mb - 0.01 in0.3 mm 0.22 in5.6 mm
06:35 PM 46.8°F8.2°C 40.0°F4.4°C 77% 2.3 mph ESE3.7 kmh ESE 6.9 mph11.1 kmh 29.68 in1005.1 mb - 0.02 in0.5 mm 0.23 in5.8 mm
06:40 PM 46.7°F8.2°C 39.9°F4.4°C 77% 5.8 mph ESE9.3 kmh ESE 9.2 mph14.8 kmh 29.68 in1005.1 mb - 0.01 in0.3 mm 0.24 in6.1 mm
06:45 PM 46.7°F8.2°C 39.9°F4.4°C 77% 2.3 mph ESE3.7 kmh ESE 3.5 mph5.6 kmh 29.68 in1005.1 mb - 0.01 in0.3 mm 0.25 in6.4 mm
06:50 PM 46.7°F8.2°C 39.9°F4.4°C 77% 6.9 mph ESE11.1 kmh ESE 10.4 mph16.7 kmh 29.68 in1005.1 mb - 0.00 in0.0 mm 0.25 in6.4 mm
06:55 PM 46.7°F8.2°C 39.9°F4.4°C 77% 8.1 mph E13.0 kmh E 11.5 mph18.5 kmh 29.68 in1005.1 mb - 0.01 in0.3 mm 0.26 in6.6 mm
07:00 PM 46.7°F8.2°C 39.9°F4.4°C 77% 5.8 mph ESE9.3 kmh ESE 9.2 mph14.8 kmh 29.68 in1005.1 mb - 0.01 in0.3 mm 0.27 in6.9 mm
07:05 PM 46.7°F8.2°C 39.9°F4.4°C 77% 6.9 mph E11.1 kmh E 10.4 mph16.7 kmh 29.68 in1005.1 mb - 0.02 in0.5 mm 0.28 in7.1 mm
07:10 PM 46.6°F8.1°C 39.8°F4.3°C 77% 6.9 mph E11.1 kmh E 9.2 mph14.8 kmh 29.68 in1005.1 mb - 0.02 in0.5 mm 0.29 in7.4 mm
07:15 PM 46.6°F8.1°C 39.8°F4.3°C 77% 4.6 mph ESE7.4 kmh ESE 6.9 mph11.1 kmh 29.68 in1005.1 mb - 0.01 in0.3 mm 0.30 in7.6 mm
07:20 PM 46.6°F8.1°C 39.7°F4.3°C 77% 6.9 mph E11.1 kmh E 10.4 mph16.7 kmh 29.68 in1005.1 mb - 0.00 in0.0 mm 0.30 in7.6 mm
07:25 PM 46.6°F8.1°C 39.7°F4.3°C 77% 6.9 mph ESE11.1 kmh ESE 8.1 mph13.0 kmh 29.68 in1005.1 mb - 0.02 in0.5 mm 0.31 in7.9 mm
07:30 PM 46.6°F8.1°C 39.7°F4.3°C 77% 4.6 mph ESE7.4 kmh ESE 9.2 mph14.8 kmh 29.68 in1005.1 mb - 0.01 in0.3 mm 0.31 in7.9 mm
07:35 PM 46.5°F8.1°C 39.7°F4.3°C 77% 5.8 mph E9.3 kmh E 6.9 mph11.1 kmh 29.67 in1004.7 mb - 0.01 in0.3 mm 0.32 in8.1 mm
07:40 PM 46.6°F8.1°C 39.7°F4.3°C 77% 4.6 mph E7.4 kmh E 8.1 mph13.0 kmh 29.67 in1004.7 mb - 0.01 in0.3 mm 0.33 in8.4 mm
07:45 PM 46.5°F8.1°C 39.7°F4.3°C 77% 10.4 mph E16.7 kmh E 13.8 mph22.2 kmh 29.66 in1004.4 mb - 0.00 in0.0 mm 0.33 in8.4 mm
07:50 PM 46.5°F8.1°C 39.7°F4.3°C 77% 6.9 mph E11.1 kmh E 9.2 mph14.8 kmh 29.66 in1004.4 mb - 0.00 in0.0 mm 0.33 in8.4 mm
07:55 PM 46.6°F8.1°C 39.8°F4.3°C 77% 8.1 mph ESE13.0 kmh ESE 12.7 mph20.4 kmh 29.66 in1004.4 mb - 0.01 in0.3 mm 0.34 in8.6 mm
08:00 PM 46.7°F8.2°C 39.9°F4.4°C 77% 6.9 mph E11.1 kmh E 9.2 mph14.8 kmh 29.66 in1004.4 mb - 0.00 in0.0 mm 0.34 in8.6 mm
08:05 PM 46.8°F8.2°C 40.0°F4.4°C 77% 9.2 mph E14.8 kmh E 11.5 mph18.5 kmh 29.65 in1004.1 mb - 0.00 in0.0 mm 0.34 in8.6 mm
08:10 PM 46.8°F8.2°C 40.0°F4.4°C 77% 9.2 mph E14.8 kmh E 11.5 mph18.5 kmh 29.66 in1004.4 mb - 0.00 in0.0 mm 0.34 in8.6 mm
08:15 PM 46.9°F8.3°C 40.1°F4.5°C 77% 8.1 mph E13.0 kmh E 11.5 mph18.5 kmh 29.66 in1004.4 mb - 0.00 in0.0 mm 0.34 in8.6 mm
08:20 PM 46.9°F8.3°C 40.1°F4.5°C 77% 9.2 mph E14.8 kmh E 11.5 mph18.5 kmh 29.66 in1004.4 mb - 0.01 in0.3 mm 0.35 in8.9 mm
08:25 PM 46.9°F8.3°C 40.1°F4.5°C 77% 9.2 mph E14.8 kmh E 11.5 mph18.5 kmh 29.66 in1004.4 mb - 0.00 in0.0 mm 0.35 in8.9 mm
08:30 PM 46.9°F8.3°C 40.1°F4.5°C 77% 8.1 mph ESE13.0 kmh ESE 11.5 mph18.5 kmh 29.66 in1004.4 mb - 0.00 in0.0 mm 0.35 in8.9 mm
08:35 PM 47.0°F8.3°C 40.2°F4.6°C 77% 8.1 mph E13.0 kmh E 11.5 mph18.5 kmh 29.65 in1004.1 mb - 0.00 in0.0 mm 0.35 in8.9 mm
08:40 PM 47.1°F8.4°C 40.2°F4.6°C 77% 5.8 mph ESE9.3 kmh ESE 9.2 mph14.8 kmh 29.66 in1004.4 mb - 0.00 in0.0 mm 0.35 in8.9 mm
08:45 PM 47.1°F8.4°C 40.3°F4.6°C 77% 5.8 mph E9.3 kmh E 11.5 mph18.5 kmh 29.66 in1004.4 mb - 0.01 in0.3 mm 0.36 in9.1 mm
08:50 PM 47.1°F8.4°C 40.3°F4.6°C 77% 8.1 mph E13.0 kmh E 11.5 mph18.5 kmh 29.66 in1004.4 mb - 0.00 in0.0 mm 0.36 in9.1 mm
08:55 PM 47.2°F8.4°C 40.3°F4.6°C 77% 6.9 mph E11.1 kmh E 9.2 mph14.8 kmh 29.65 in1004.1 mb - 0.01 in0.3 mm 0.36 in9.1 mm
09:00 PM 47.2°F8.4°C 40.4°F4.7°C 77% 8.1 mph E13.0 kmh E 10.4 mph16.7 kmh 29.65 in1004.1 mb - 0.01 in0.3 mm 0.36 in9.1 mm
09:05 PM 47.3°F8.5°C 40.5°F4.7°C 77% 8.1 mph E13.0 kmh E 10.4 mph16.7 kmh 29.65 in1004.1 mb - 0.00 in0.0 mm 0.36 in9.1 mm
09:10 PM 47.3°F8.5°C 40.5°F4.7°C 77% 5.8 mph ESE9.3 kmh ESE 9.2 mph14.8 kmh 29.65 in1004.1 mb - 0.00 in0.0 mm 0.36 in9.1 mm
09:15 PM 47.4°F8.6°C 40.5°F4.7°C 77% 3.5 mph ESE5.6 kmh ESE 3.5 mph5.6 kmh 29.65 in1004.1 mb - 0.01 in0.3 mm 0.37 in9.4 mm
09:20 PM 47.4°F8.6°C 40.5°F4.7°C 77% 5.8 mph E9.3 kmh E 6.9 mph11.1 kmh 29.65 in1004.1 mb - 0.01 in0.3 mm 0.37 in9.4 mm
09:25 PM 47.4°F8.6°C 40.6°F4.8°C 77% 4.6 mph ESE7.4 kmh ESE 8.1 mph13.0 kmh 29.66 in1004.4 mb - 0.01 in0.3 mm 0.38 in9.7 mm
09:30 PM 47.3°F8.5°C 40.5°F4.7°C 77% 5.8 mph E9.3 kmh E 8.1 mph13.0 kmh 29.66 in1004.4 mb - 0.01 in0.3 mm 0.39 in9.9 mm
09:35 PM 47.4°F8.6°C 40.5°F4.7°C 77% 3.5 mph ESE5.6 kmh ESE 6.9 mph11.1 kmh 29.65 in1004.1 mb - 0.01 in0.3 mm 0.39 in9.9 mm
09:40 PM 47.4°F8.6°C 40.6°F4.8°C 77% 3.5 mph ESE5.6 kmh ESE 8.1 mph13.0 kmh 29.66 in1004.4 mb - 0.00 in0.0 mm 0.39 in9.9 mm
09:45 PM 47.4°F8.6°C 40.5°F4.7°C 77% 5.8 mph E9.3 kmh E 11.5 mph18.5 kmh 29.65 in1004.1 mb - 0.01 in0.3 mm 0.40 in10.2 mm
09:50 PM 47.3°F8.5°C 40.5°F4.7°C 77% 3.5 mph ESE5.6 kmh ESE 9.2 mph14.8 kmh 29.65 in1004.1 mb - 0.00 in0.0 mm 0.40 in10.2 mm
09:55 PM 47.3°F8.5°C 40.5°F4.7°C 77% 5.8 mph E9.3 kmh E 8.1 mph13.0 kmh 29.65 in1004.1 mb - 0.00 in0.0 mm 0.40 in10.2 mm
10:00 PM 47.3°F8.5°C 40.5°F4.7°C 77% 3.5 mph ESE5.6 kmh ESE 8.1 mph13.0 kmh 29.65 in1004.1 mb - 0.01 in0.3 mm 0.41 in10.4 mm
10:05 PM 47.3°F8.5°C 40.5°F4.7°C 77% 5.8 mph E9.3 kmh E 10.4 mph16.7 kmh 29.65 in1004.1 mb - 0.01 in0.3 mm 0.41 in10.4 mm
10:10 PM 47.4°F8.6°C 40.6°F4.8°C 77% 5.8 mph E9.3 kmh E 8.1 mph13.0 kmh 29.65 in1004.1 mb - 0.01 in0.3 mm 0.42 in10.7 mm
10:15 PM 47.4°F8.6°C 40.6°F4.8°C 77% 5.8 mph ESE9.3 kmh ESE 8.1 mph13.0 kmh 29.66 in1004.4 mb - 0.01 in0.3 mm 0.43 in10.9 mm
10:20 PM 47.4°F8.6°C 40.6°F4.8°C 77% 3.5 mph ESE5.6 kmh ESE 5.8 mph9.3 kmh 29.66 in1004.4 mb - 0.00 in0.0 mm 0.43 in10.9 mm
10:25 PM 47.4°F8.6°C 40.5°F4.7°C 77% 3.5 mph E5.6 kmh E 6.9 mph11.1 kmh 29.66 in1004.4 mb - 0.01 in0.3 mm 0.44 in11.2 mm
10:30 PM 47.4°F8.6°C 40.5°F4.7°C 77% 4.6 mph E7.4 kmh E 6.9 mph11.1 kmh 29.65 in1004.1 mb - 0.00 in0.0 mm 0.44 in11.2 mm
10:35 PM 47.4°F8.6°C 40.6°F4.8°C 77% 6.9 mph E11.1 kmh E 9.2 mph14.8 kmh 29.65 in1004.1 mb - 0.00 in0.0 mm 0.44 in11.2 mm
10:40 PM 47.4°F8.6°C 40.6°F4.8°C 77% 5.8 mph E9.3 kmh E 6.9 mph11.1 kmh 29.65 in1004.1 mb - 0.01 in0.3 mm 0.45 in11.4 mm
10:45 PM 47.4°F8.6°C 40.6°F4.8°C 77% 6.9 mph E11.1 kmh E 8.1 mph13.0 kmh 29.64 in1003.7 mb - 0.00 in0.0 mm 0.45 in11.4 mm
10:50 PM 47.5°F8.6°C 40.3°F4.6°C 76% 5.8 mph E9.3 kmh E 6.9 mph11.1 kmh 29.64 in1003.7 mb - 0.00 in0.0 mm 0.45 in11.4 mm
10:55 PM 47.6°F8.7°C 40.4°F4.7°C 76% 5.8 mph E9.3 kmh E 8.1 mph13.0 kmh 29.64 in1003.7 mb - 0.00 in0.0 mm 0.45 in11.4 mm
11:00 PM 47.6°F8.7°C 40.4°F4.7°C 76% 5.8 mph E9.3 kmh E 6.9 mph11.1 kmh 29.64 in1003.7 mb - 0.00 in0.0 mm 0.45 in11.4 mm
11:05 PM 47.7°F8.7°C 40.5°F4.7°C 76% 4.6 mph E7.4 kmh E 8.1 mph13.0 kmh 29.64 in1003.7 mb - 0.01 in0.3 mm 0.46 in11.7 mm
11:10 PM 47.7°F8.7°C 40.5°F4.7°C 76% 5.8 mph ESE9.3 kmh ESE 6.9 mph11.1 kmh 29.64 in1003.7 mb - 0.01 in0.3 mm 0.46 in11.7 mm
11:15 PM 47.7°F8.7°C 40.5°F4.7°C 76% 8.1 mph E13.0 kmh E 9.2 mph14.8 kmh 29.64 in1003.7 mb - 0.00 in0.0 mm 0.46 in11.7 mm
11:20 PM 47.7°F8.7°C 40.9°F4.9°C 77% 6.9 mph E11.1 kmh E 9.2 mph14.8 kmh 29.64 in1003.7 mb - 0.00 in0.0 mm 0.46 in11.7 mm
11:25 PM 47.7°F8.7°C 40.9°F4.9°C 77% 4.6 mph E7.4 kmh E 8.1 mph13.0 kmh 29.64 in1003.7 mb - 0.00 in0.0 mm 0.46 in11.7 mm
11:30 PM 47.8°F8.8°C 40.9°F4.9°C 77% 6.9 mph E11.1 kmh E 9.2 mph14.8 kmh 29.64 in1003.7 mb - 0.00 in0.0 mm 0.46 in11.7 mm
11:35 PM 47.8°F8.8°C 40.9°F4.9°C 77% 8.1 mph E13.0 kmh E 10.4 mph16.7 kmh 29.64 in1003.7 mb - 0.00 in0.0 mm 0.46 in11.7 mm
11:40 PM 47.8°F8.8°C 40.9°F4.9°C 77% 6.9 mph E11.1 kmh E 11.5 mph18.5 kmh 29.64 in1003.7 mb - 0.00 in0.0 mm 0.46 in11.7 mm
11:45 PM 47.9°F8.8°C 41.0°F5.0°C 77% 6.9 mph E11.1 kmh E 11.5 mph18.5 kmh 29.64 in1003.7 mb - 0.00 in0.0 mm 0.46 in11.7 mm
11:50 PM 47.9°F8.8°C 41.0°F5.0°C 77% 5.8 mph SE9.3 kmh SE 8.1 mph13.0 kmh 29.64 in1003.7 mb - 0.00 in0.0 mm 0.46 in11.7 mm
11:55 PM 47.9°F8.8°C 41.1°F5.1°C 77% 5.8 mph E9.3 kmh E 8.1 mph13.0 kmh 29.64 in1003.7 mb - 0.00 in0.0 mm 0.46 in11.7 mm